Payneville, Kentucky
Current Conditions -  °F | °C
As of 9:07 AM on Saturday 22 Nov 2014 (Local Time) from KFTK Reporting Station
Overcast Overcast  
Wind Chill: 44°   Ceiling: 7000
Heat Index: 48°   Visibility: 10mi
Dew Point: 37°   Wind: 9mph
Humidity: 66%   Direction: 180°S
Pressure: 30.29"   Gusts: NA
Location:  37.99°N, 86.31°W
Report Text: KFTK 221407Z AUTO 18008KT 10SM OVC070 09/03 A3029 RMK AO2
Loading
Personal Weather Stations






























Interactive Weather Map New forecast layout! Learn more

10-Day Weather Forecast

Advertisements
Track Severe Weather on mobile